Latest Coastal Weather Observations for Port Macquarie Airport

IDN60701

Issued at 3:55 pm EST Saturday 19 April 2014 (issued every 10 minutes, with the page automatically refreshed every 10 minutes)

About coastal observations | Map of coastal stations | Coastal observations for NSW | Marine services | Other Formats
Station Details ID: 060139 Name: PORT MACQUARIE AIRPORT AWS Lat: -31.43 Lon: 152.87 Height: 4.2 m
Data from the previous 72 hours. | See also: Recent months at Port Macquarie Airport
Date/Time
EST
Temp

°C
Wind Pressure Rain
since 9am
mm
Weather Cloud Vis
km
Sea
Height
m
Swell
Dir
 
Speed
knots
Gust
knots
hPa Trend Height
m
Period
s
Dir
19/03:30pm 23.1 S 11 15 1013.2 - 0.0 - - 10 - - - -
19/03:00pm 23.4 S 11 14 1013.2 - 0.0 - - 10 - - - -
19/02:30pm 23.4 S 11 14 1013.3 - 0.0 - - 10 - - - -
19/02:00pm 23.7 SSE 10 15 1013.5 - 0.0 - - 10 - - - -
19/01:30pm 23.7 SSE 10 14 1013.6 - 0.0 - - 10 - - - -
19/01:00pm 23.0 SE 9 14 1013.9 - 0.0 - - 10 - - - -
19/12:30pm 24.5 S 7 11 1014.2 - 0.0 - - 10 - - - -
19/12:00pm 24.2 S 9 13 1014.7 - 0.0 - - 10 - - - -
19/11:30am 24.5 S 9 14 1014.9 - 0.0 - - 10 - - - -
19/11:00am 23.6 SW 8 10 1015.5 - 0.0 - - 10 - - - -
19/10:30am 23.4 W 7 11 1015.7 - 0.0 - - 10 - - - -
19/10:00am 22.4 W 8 15 1015.8 - 0.0 - - 10 - - - -
19/09:30am 21.4 W 5 7 1016.0 - 0.0 - - 10 - - - -
19/09:00am 20.0 WNW 7 10 1016.0 - 0.0 - - 10 - - - -
19/08:30am 18.5 WNW 5 8 1016.1 - 0.0 - - 10 - - - -
19/08:00am 17.4 W 5 8 1016.0 - 0.0 - - 10 - - - -
19/07:30am 15.7 W 7 10 1015.7 - 0.0 - - 10 - - - -
19/07:00am 14.8 W 8 10 1015.4 - 0.0 - - 10 - - - -
19/06:30am 14.0 WNW 7 9 1015.1 - 0.0 - - 10 - - - -
19/06:00am 13.2 WNW 7 9 1014.8 - 0.0 - - 10 - - - -
19/05:30am 11.9 WNW 4 6 1014.6 - 0.0 - - 10 - - - -
19/05:00am 11.4 NW 5 6 1014.6 - 0.0 - - 10 - - - -
19/04:30am 12.2 NW 5 6 1014.4 - 0.0 - - 10 - - - -
19/04:00am 13.9 WNW 7 10 1014.3 - 0.0 - - 10 - - - -
19/03:30am 12.2 WNW 5 6 1014.3 - 0.0 - - 10 - - - -
19/03:00am 11.6 WNW 5 6 1014.3 - 0.0 - - 10 - - - -
19/02:30am 12.0 NW 4 5 1014.4 - 0.0 - - 10 - - - -
19/02:00am 12.3 NW 4 5 1014.4 - 0.0 - - 10 - - - -
19/01:30am 13.3 WNW 5 6 1014.7 - 0.0 - - 10 - - - -
19/01:00am 13.1 WNW 6 8 1015.0 - 0.0 - Partly cloudy 10 - - - -
19/12:30am 13.4 NNW 3 4 1015.2 - 0.0 - Partly cloudy 10 - - - -
19/12:00am 13.9 WNW 5 6 1015.2 - 0.0 - Mostly cloudy 10 - - - -
 
Date/Time
EST
Temp

°C
Wind Pressure Rain
since 9am
mm
Weather Cloud Vis
km
Sea
Height
m
Swell
Dir
 
Speed
knots
Gust
knots
hPa Trend Height
m
Period
s
Dir
18/11:30pm 13.5 WNW 6 8 1015.1 - 0.0 - Partly cloudy 10 - - - -
18/11:00pm 12.8 WNW 4 5 1015.2 - 0.0 - - 10 - - - -
18/10:30pm 12.1 CALM 0 0 1015.2 - 0.0 - - 10 - - - -
18/10:00pm 13.0 CALM 0 0 1015.3 - 0.0 - - 10 - - - -
18/09:30pm 13.1 CALM 0 0 1015.2 - 0.0 - - 10 - - - -
18/09:00pm 13.0 CALM 0 0 1015.1 - 0.0 - - 10 - - - -
18/08:30pm 13.9 CALM 0 0 1015.0 - 0.0 - - 10 - - - -
18/08:00pm 13.8 CALM 0 0 1014.8 - 0.0 - - 10 - - - -
18/07:30pm 14.7 CALM 0 0 1014.6 - 0.0 - - 10 - - - -
18/07:00pm 15.8 CALM 0 0 1014.3 - 0.0 - - 10 - - - -
18/06:30pm 16.7 S 1 3 1014.1 - 0.0 - - 10 - - - -
18/06:00pm 17.7 CALM 0 0 1013.8 - 0.0 - - 10 - - - -
18/05:30pm 20.0 ESE 1 3 1013.6 - 0.0 - - 10 - - - -
18/05:00pm 21.6 E 5 8 1013.2 - 0.0 - - 10 - - - -
18/04:30pm 22.5 ESE 6 8 1012.9 - 0.0 - - 10 - - - -
18/04:00pm 23.0 ESE 6 9 1012.8 - 0.0 - - 10 - - - -
18/03:30pm 23.6 SE 6 9 1012.7 - 0.0 - - 10 - - - -
18/03:00pm 24.0 SSE 8 10 1012.7 - 0.0 - - 10 - - - -
18/02:30pm 24.3 S 7 9 1012.9 - 0.0 - - 10 - - - -
18/02:00pm 25.2 WNW 4 9 1013.0 - 0.0 - Partly cloudy 10 - - - -
18/01:30pm 25.0 SW 5 7 1013.1 - 0.0 - - 10 - - - -
18/01:00pm 24.4 WSW 6 9 1013.4 - 0.0 - - 10 - - - -
18/12:30pm 24.2 W 7 9 1013.9 - 0.0 - - 10 - - - -
18/12:00pm 24.0 SSW 6 10 1014.4 - 0.0 - - 10 - - - -
18/11:30am 23.7 WSW 7 10 1015.0 - 0.0 - - 10 - - - -
18/11:00am 23.1 WSW 8 13 1015.5 - 0.0 - - 10 - - - -
18/10:30am 22.8 W 5 9 1016.1 - 0.0 - - 10 - - - -
18/10:00am 21.6 W 6 9 1016.4 - 0.0 - - 10 - - - -
18/09:30am 21.0 WNW 4 7 1016.5 - 0.0 - - 10 - - - -
18/09:00am 19.6 W 8 10 1016.8 - 0.0 - - 10 - - - -
18/08:30am 18.6 W 5 8 1016.8 - 0.0 - - 10 - - - -
18/08:00am 17.0 W 7 10 1016.8 - 0.0 - - 10 - - - -
18/07:30am 16.1 W 9 12 1016.8 - 0.0 - - 10 - - - -
18/07:00am 14.8 W 6 9 1016.7 - 0.0 - - 10 - - - -
18/06:30am 14.1 W 6 8 1016.6 - 0.0 - - 10 - - - -
18/06:00am 14.3 W 6 9 1016.4 - 0.0 - - 10 - - - -
18/05:30am 14.7 W 8 11 1016.3 - 0.0 - - 10 - - - -
18/05:00am 14.9 W 9 13 1016.3 - 0.0 - - 10 - - - -
18/04:30am 15.0 W 8 11 1016.2 - 0.0 - - 10 - - - -
18/04:00am 15.1 W 7 12 1016.1 - 0.0 - - 10 - - - -
18/03:30am 15.2 W 8 12 1016.1 - 0.0 - - 10 - - - -
18/03:00am 15.2 W 8 12 1016.2 - 0.0 - - 10 - - - -
18/02:30am 15.3 W 9 11 1016.4 - 0.0 - - 10 - - - -
18/02:00am 15.3 W 8 12 1016.8 - 0.0 - - 10 - - - -
18/01:30am 15.4 W 8 11 1017.2 - 0.0 - - 10 - - - -
18/01:00am 15.7 W 9 11 1017.3 - 0.0 - - 10 - - - -
18/12:30am 16.0 W 9 11 1017.4 - 0.0 - - 10 - - - -
18/12:00am 16.0 W 6 8 1017.7 - 0.0 - - 10 - - - -
 
Date/Time
EST
Temp

°C
Wind Pressure Rain
since 9am
mm
Weather Cloud Vis
km
Sea
Height
m
Swell
Dir
 
Speed
knots
Gust
knots
hPa Trend Height
m
Period
s
Dir
17/11:30pm 16.2 W 7 10 1017.8 - 0.0 - - 10 - - - -
17/11:00pm 16.7 W 7 10 1018.1 - 0.0 - - 10 - - - -
17/10:30pm 16.6 W 7 8 1018.3 - 0.0 - - 10 - - - -
17/10:00pm 16.3 W 5 7 1018.5 - 0.0 - - 10 - - - -
17/09:30pm 16.3 W 5 7 1018.4 - 0.0 - - 10 - - - -
17/09:00pm 16.7 W 4 6 1018.3 - 0.0 - - 10 - - - -
17/08:30pm 17.6 W 5 7 1018.1 - 0.0 - - 10 - - - -
17/08:00pm 18.1 SW 8 9 1017.9 - 0.0 - - 10 - - - -
17/07:30pm 18.1 WSW 6 7 1017.7 - 0.0 - - 10 - - - -
17/07:00pm 18.9 SW 8 13 1017.5 - 0.0 - Cloudy 10 - - - -
17/06:30pm 18.8 SSW 7 10 1017.2 - 0.0 - - 10 - - - -
17/06:00pm 19.2 SSW 9 13 1017.1 - 0.0 - - 10 - - - -
17/05:30pm 19.6 SSW 11 15 1016.8 - 0.0 - Partly cloudy 10 - - - -
17/05:00pm 20.1 S 12 17 1016.6 - 0.0 - - 10 - - - -
17/04:30pm 20.5 S 14 21 1016.4 - 0.0 - - 10 - - - -
17/04:00pm 21.2 S 13 19 1016.2 - 0.0 - Partly cloudy 10 - - - -
17/03:30pm 22.4 S 13 19 1016.0 - 0.0 - Partly cloudy 10 - - - -
17/03:00pm 23.1 SSW 8 15 1016.1 - 0.0 - Mostly cloudy 10 - - - -
17/02:30pm 22.1 S 11 16 1016.0 - 0.0 - Partly cloudy 10 - - - -
17/02:00pm 22.8 S 9 13 1016.1 - 0.0 - Partly cloudy 10 - - - -
17/01:30pm 23.3 SW 10 16 1016.2 - 0.0 - Partly cloudy 10 - - - -
17/01:00pm 22.9 SW 11 15 1016.3 - 0.0 - Partly cloudy 10 - - - -
17/12:30pm 23.1 SW 12 16 1016.6 - 0.0 - Partly cloudy 10 - - - -
17/12:00pm 22.4 SW 10 15 1017.0 - 0.0 - Mostly cloudy 10 - - - -
17/11:30am 22.5 SSW 12 16 1017.4 - 0.0 - Cloudy 10 - - - -
17/11:00am 22.6 SW 14 19 1017.9 - 0.0 - Partly cloudy 10 - - - -
17/10:30am 22.5 SW 14 19 1017.9 - 0.0 - Partly cloudy 10 - - - -
17/10:00am 22.2 WSW 13 19 1018.1 - 0.0 - - 10 - - - -
17/09:30am 21.7 SW 13 19 1018.1 - 0.0 - - 10 - - - -
17/09:00am 20.6 W 8 13 1018.1 - 0.0 - - 10 - - - -
17/08:30am 19.4 W 7 9 1018.3 - 0.0 - - 10 - - - -
17/08:00am 18.3 W 6 8 1018.1 - 0.0 - - 10 - - - -
17/07:30am 17.7 W 8 10 1017.8 - 0.0 - Partly cloudy 10 - - - -
17/07:00am 16.6 W 9 11 1017.5 - 0.0 - - 10 - - - -
17/06:30am 15.7 W 8 11 1017.1 - 0.0 - - 10 - - - -
17/06:00am 15.6 W 8 12 1016.9 - 0.0 - - 10 - - - -
17/05:30am 15.5 W 7 9 1016.7 - 0.0 - - 10 - - - -
17/05:00am 15.7 WNW 7 9 1016.5 - 0.0 - - 10 - - - -
17/04:30am 16.1 W 7 9 1016.4 - 0.0 - Partly cloudy 10 - - - -
17/04:00am 16.4 W 7 10 1016.4 - 0.0 - Partly cloudy 10 - - - -
17/03:30am 16.0 WNW 7 9 1016.6 - 0.0 - Partly cloudy 10 - - - -
17/03:00am 15.6 W 8 11 1016.5 - 0.0 - Mostly clear 10 - - - -
17/02:30am 15.3 WNW 7 9 1016.4 - 0.0 - - 10 - - - -
17/02:00am 15.3 CALM 0 0 1016.7 - 0.0 - Partly cloudy 10 - - - -
17/01:30am 16.4 W 7 9 1016.7 - 0.0 - Cloudy 10 - - - -
17/01:00am 16.3 W 7 9 1017.0 - 0.0 - Partly cloudy 10 - - - -
17/12:30am 16.4 W 9 11 1017.2 - 0.0 - Partly cloudy 10 - - - -
17/12:00am 16.4 W 8 9 1017.2 - 0.0 - - 10 - - - -
 
Date/Time
EST
Temp

°C
Wind Pressure Rain
since 9am
mm
Weather Cloud Vis
km
Sea
Height
m
Swell
Dir
 
Speed
knots
Gust
knots
hPa Trend Height
m
Period
s
Dir
16/11:30pm 16.0 W 6 8 1017.3 - 0.0 - - 10 - - - -
16/11:00pm 15.8 W 4 6 1017.3 - 0.0 - - 10 - - - -
16/10:30pm 16.4 WNW 6 7 1017.6 - 0.0 - - 10 - - - -
16/10:00pm 16.9 W 7 10 1017.7 - 0.0 - - 10 - - - -
16/09:30pm 17.1 W 8 11 1017.6 - 0.0 - - 10 - - - -
16/09:00pm 17.2 W 7 9 1017.6 - 0.0 - - 10 - - - -
16/08:30pm 17.5 WSW 5 7 1017.5 - 0.0 - - 10 - - - -
16/08:00pm 17.8 W 8 11 1017.1 - 0.0 - - 10 - - - -
16/07:30pm 17.9 WSW 9 12 1016.8 - 0.0 - - 10 - - - -
16/07:00pm 18.3 WSW 10 14 1016.7 - 0.0 - - 10 - - - -
16/06:30pm 18.2 W 8 10 1016.7 - 0.0 - - 10 - - - -
16/06:00pm 18.3 WSW 8 11 1016.4 - 0.0 - - 10 - - - -
16/05:30pm 18.7 WSW 8 10 1016.0 - 0.0 - - 10 - - - -
16/05:00pm 19.5 W 9 14 1016.0 - 0.0 - - 10 - - - -
16/04:30pm 20.8 W 10 13 1015.8 - 0.0 - - 10 - - - -
16/04:00pm 20.7 WSW 9 13 1015.6 - 0.0 - Partly cloudy 10 - - - -

Other Formats:

Comma delimited format used in spreadsheet applications
http://www.bom.gov.au/fwo/IDN60701/IDN60701.94786.axf

JavaScript Object Notation format (JSON) in row-major order
http://www.bom.gov.au/fwo/IDN60701/IDN60701.94786.json